Katemcy, Texas
Current Conditions -  °F | °C
As of 12:15 PM on Friday 19 Dec 2014 (Local Time) from KBBD Reporting Station
Overcast Overcast  
Wind Chill: 46°   Ceiling: 800
Heat Index: 48°   Visibility: 10mi
Dew Point: 43°   Wind: 6mph
Humidity: 82%   Direction: 40°NE
Pressure: 30.15"   Gusts: NA
Location:  31.063°N, 99.3372°W
Report Text: KBBD 191815Z AUTO 04005KT 10SM OVC008 09/06 A3015 RMK
Loading
Personal Weather Stations






























Interactive Weather Map New forecast layout! Learn more

10-Day Weather Forecast

Advertisements
Track Severe Weather on mobile